sensor_id;sensor_type;location;lat;lon;timestamp;P1;durP1;ratioP1;P2;durP2;ratioP2
14675;SDS011;7426;52.524;13.460;2022-09-01T00:00:14;2200.0;;;961.9124999999999;;
14675;SDS011;7426;52.524;13.460;2022-09-01T00:02:15;2081.075;;;833.2375;;
14675;SDS011;7426;52.524;13.460;2022-09-01T00:04:16;2159.9625;;;881.775;;
14675;SDS011;7426;52.524;13.460;2022-09-01T00:06:15;2097.95;;;852.0625;;
14675;SDS011;7426;52.524;13.460;2022-09-01T00:08:14;2049.825;;;839.1375;;
14675;SDS011;7426;52.524;13.460;2022-09-01T00:10:15;2089.675;;;843.0;;
14675;SDS011;7426;52.524;13.460;2022-09-01T00:12:14;1979.1375;;;781.4000000000001;;
14675;SDS011;7426;52.524;13.460;2022-09-01T00:14:14;2116.1000000000004;;;850.8125;;
14675;SDS011;7426;52.524;13.460;2022-09-01T00:16:15;2066.2;;;859.1625;;
14675;SDS011;7426;52.524;13.460;2022-09-01T00:18:14;2136.8999999999996;;;874.525;;
14675;SDS011;7426;52.524;13.460;2022-09-01T00:20:15;2138.5125;;;896.9499999999999;;
14675;SDS011;7426;52.524;13.460;2022-09-01T00:22:14;2040.1125;;;901.2125000000001;;
14675;SDS011;7426;52.524;13.460;2022-09-01T00:24:14;2058.2;;;895.3625;;
14675;SDS011;7426;52.524;13.460;2022-09-01T00:26:14;2116.35;;;927.0875;;
14675;SDS011;7426;52.524;13.460;2022-09-01T00:28:14;1980.875;;;873.25;;
14675;SDS011;7426;52.524;13.460;2022-09-01T00:30:14;2172.975;;;925.975;;
14675;SDS011;7426;52.524;13.460;2022-09-01T00:32:14;2200.0;;;931.6;;
14675;SDS011;7426;52.524;13.460;2022-09-01T00:34:14;2072.0125;;;970.9;;
14675;SDS011;7426;52.524;13.460;2022-09-01T00:36:14;1992.6625;;;891.2125;;
14675;SDS011;7426;52.524;13.460;2022-09-01T00:38:14;2076.9;;;898.575;;
14675;SDS011;7426;52.524;13.460;2022-09-01T00:40:14;2053.4375;;;878.525;;
14675;SDS011;7426;52.524;13.460;2022-09-01T00:42:14;2002.2749999999999;;;889.175;;
14675;SDS011;7426;52.524;13.460;2022-09-01T00:44:15;1850.575;;;747.5875;;
14675;SDS011;7426;52.524;13.460;2022-09-01T00:46:15;2060.05;;;861.6999999999999;;
14675;SDS011;7426;52.524;13.460;2022-09-01T00:48:14;1975.4625;;;819.4875;;
14675;SDS011;7426;52.524;13.460;2022-09-01T00:50:16;2087.95;;;883.1875;;
14675;SDS011;7426;52.524;13.460;2022-09-01T00:52:16;2058.45;;;838.75;;
14675;SDS011;7426;52.524;13.460;2022-09-01T00:54:15;2072.775;;;833.9875;;
14675;SDS011;7426;52.524;13.460;2022-09-01T00:56:14;1879.8625;;;831.3125;;
14675;SDS011;7426;52.524;13.460;2022-09-01T00:58:14;2110.375;;;857.5625;;
14675;SDS011;7426;52.524;13.460;2022-09-01T01:00:16;2040.0625;;;783.675;;
14675;SDS011;7426;52.524;13.460;2022-09-01T01:02:15;2063.175;;;845.3;;
14675;SDS011;7426;52.524;13.460;2022-09-01T01:04:14;2024.6625;;;832.2125;;
14675;SDS011;7426;52.524;13.460;2022-09-01T01:06:15;2097.8125;;;872.0375;;
14675;SDS011;7426;52.524;13.460;2022-09-01T01:08:17;1771.725;;;801.5;;
14675;SDS011;7426;52.524;13.460;2022-09-01T01:10:16;2089.125;;;871.275;;
14675;SDS011;7426;52.524;13.460;2022-09-01T01:12:17;2094.0125;;;837.525;;
14675;SDS011;7426;52.524;13.460;2022-09-01T01:14:16;2199.025;;;933.875;;
14675;SDS011;7426;52.524;13.460;2022-09-01T01:16:14;2139.9;;;936.3499999999999;;
14675;SDS011;7426;52.524;13.460;2022-09-01T01:18:14;2015.8;;;866.175;;
14675;SDS011;7426;52.524;13.460;2022-09-01T01:23:20;1932.1;;;797.825;;
14675;SDS011;7426;52.524;13.460;2022-09-01T01:24:20;1816.7375;;;772.4124999999999;;
14675;SDS011;7426;52.524;13.460;2022-09-01T01:26:14;1861.15;;;799.45;;
14675;SDS011;7426;52.524;13.460;2022-09-01T01:28:15;1771.3;;;760.5999999999999;;
14675;SDS011;7426;52.524;13.460;2022-09-01T01:32:14;1907.7;;;559.975;;
14675;SDS011;7426;52.524;13.460;2022-09-01T01:34:15;1659.475;;;750.3125;;
14675;SDS011;7426;52.524;13.460;2022-09-01T01:36:17;1659.7;;;750.3125;;
14675;SDS011;7426;52.524;13.460;2022-09-01T01:38:15;1659.6125;;;602.4749999999999;;
14675;SDS011;7426;52.524;13.460;2022-09-01T01:40:15;1659.3875;;;636.275;;
14675;SDS011;7426;52.524;13.460;2022-09-01T01:42:14;1622.65;;;440.2625;;
14675;SDS011;7426;52.524;13.460;2022-09-01T01:44:15;1756.6;;;669.0875;;
14675;SDS011;7426;52.524;13.460;2022-09-01T01:46:15;1785.575;;;682.9625;;
14675;SDS011;7426;52.524;13.460;2022-09-01T01:48:14;1704.9625;;;600.7125000000001;;
14675;SDS011;7426;52.524;13.460;2022-09-01T01:50:14;1605.5375;;;521.175;;
14675;SDS011;7426;52.524;13.460;2022-09-01T01:52:16;1702.575;;;647.975;;
14675;SDS011;7426;52.524;13.460;2022-09-01T01:54:15;1659.675;;;561.35;;
14675;SDS011;7426;52.524;13.460;2022-09-01T01:56:17;1781.4875;;;740.9625;;
14675;SDS011;7426;52.524;13.460;2022-09-01T01:58:15;1659.3125;;;562.375;;
14675;SDS011;7426;52.524;13.460;2022-09-01T02:00:19;1745.8;;;563.5;;
14675;SDS011;7426;52.524;13.460;2022-09-01T02:02:14;1925.0;;;751.875;;
14675;SDS011;7426;52.524;13.460;2022-09-01T02:04:15;1683.15;;;631.6375;;
14675;SDS011;7426;52.524;13.460;2022-09-01T02:06:14;1659.3875;;;618.275;;
14675;SDS011;7426;52.524;13.460;2022-09-01T02:08:15;1785.2;;;535.7625;;
14675;SDS011;7426;52.524;13.460;2022-09-01T02:10:14;1436.825;;;439.6125;;
14675;SDS011;7426;52.524;13.460;2022-09-01T02:12:17;1668.1;;;611.3874999999999;;
14675;SDS011;7426;52.524;13.460;2022-09-01T02:14:15;1698.0375;;;611.575;;
14675;SDS011;7426;52.524;13.460;2022-09-01T02:16:15;1609.35;;;561.7;;
14675;SDS011;7426;52.524;13.460;2022-09-01T02:18:17;1919.425;;;733.8;;
14675;SDS011;7426;52.524;13.460;2022-09-01T02:20:15;1818.65;;;720.8625;;
14675;SDS011;7426;52.524;13.460;2022-09-01T02:22:14;1891.55;;;672.1625;;
14675;SDS011;7426;52.524;13.460;2022-09-01T02:24:15;1888.5625;;;637.6500000000001;;
14675;SDS011;7426;52.524;13.460;2022-09-01T02:26:15;1781.825;;;603.55;;
14675;SDS011;7426;52.524;13.460;2022-09-01T02:28:15;1686.6999999999998;;;726.1125;;
14675;SDS011;7426;52.524;13.460;2022-09-01T02:30:14;1847.1000000000001;;;722.7375000000001;;
14675;SDS011;7426;52.524;13.460;2022-09-01T02:32:21;1975.6375;;;849.425;;
14675;SDS011;7426;52.524;13.460;2022-09-01T02:34:14;2012.375;;;825.5;;
14675;SDS011;7426;52.524;13.460;2022-09-01T02:36:15;2056.025;;;813.8375;;
14675;SDS011;7426;52.524;13.460;2022-09-01T02:38:16;1573.2375;;;620.8;;
14675;SDS011;7426;52.524;13.460;2022-09-01T02:40:14;1994.2875;;;836.475;;
14675;SDS011;7426;52.524;13.460;2022-09-01T02:42:15;1821.9;;;668.05;;
14675;SDS011;7426;52.524;13.460;2022-09-01T02:44:14;1686.925;;;618.8499999999999;;
14675;SDS011;7426;52.524;13.460;2022-09-01T02:46:14;1708.2375;;;623.8000000000001;;
14675;SDS011;7426;52.524;13.460;2022-09-01T02:48:16;1697.5625;;;558.0375;;
14675;SDS011;7426;52.524;13.460;2022-09-01T02:50:18;1579.0;;;550.3125;;
14675;SDS011;7426;52.524;13.460;2022-09-01T02:52:17;1556.35;;;514.15;;
14675;SDS011;7426;52.524;13.460;2022-09-01T02:54:16;1425.625;;;550.9625;;
14675;SDS011;7426;52.524;13.460;2022-09-01T02:56:16;1544.5500000000002;;;575.3375000000001;;
14675;SDS011;7426;52.524;13.460;2022-09-01T02:58:18;2026.175;;;742.6374999999999;;
14675;SDS011;7426;52.524;13.460;2022-09-01T03:00:22;1521.6625000000001;;;665.5999999999999;;
14675;SDS011;7426;52.524;13.460;2022-09-01T03:02:14;1629.6000000000001;;;678.4125;;
14675;SDS011;7426;52.524;13.460;2022-09-01T03:04:14;1641.8375;;;691.625;;
14675;SDS011;7426;52.524;13.460;2022-09-01T03:06:17;954.775;;;490.4;;
14675;SDS011;7426;52.524;13.460;2022-09-01T03:08:15;708.425;;;441.13750000000005;;
14675;SDS011;7426;52.524;13.460;2022-09-01T03:10:15;670.7375000000001;;;409.8;;
14675;SDS011;7426;52.524;13.460;2022-09-01T03:12:14;702.175;;;403.57500000000005;;
14675;SDS011;7426;52.524;13.460;2022-09-01T03:14:14;75.25;;;68.4375;;
14675;SDS011;7426;52.524;13.460;2022-09-01T03:16:15;445.7375;;;364.125;;
14675;SDS011;7426;52.524;13.460;2022-09-01T03:18:14;103.625;;;95.6375;;
14675;SDS011;7426;52.524;13.460;2022-09-01T03:20:14;103.625;;;96.225;;
14675;SDS011;7426;52.524;13.460;2022-09-01T03:22:14;342.41249999999997;;;304.65;;
14675;SDS011;7426;52.524;13.460;2022-09-01T03:24:16;350.9875;;;317.925;;
14675;SDS011;7426;52.524;13.460;2022-09-01T03:26:18;314.45;;;285.3125;;
14675;SDS011;7426;52.524;13.460;2022-09-01T03:28:14;82.6;;;75.1375;;
14675;SDS011;7426;52.524;13.460;2022-09-01T03:30:14;120.0;;;110.575;;
14675;SDS011;7426;52.524;13.460;2022-09-01T03:32:14;12.375;;;9.600000000000001;;
14675;SDS011;7426;52.524;13.460;2022-09-01T03:34:15;19.3;;;14.775;;
14675;SDS011;7426;52.524;13.460;2022-09-01T03:36:18;14.5125;;;11.9;;
14675;SDS011;7426;52.524;13.460;2022-09-01T03:38:20;6.55;;;2.1125;;
14675;SDS011;7426;52.524;13.460;2022-09-01T03:40:14;5.2625;;;1.4625;;
14675;SDS011;7426;52.524;13.460;2022-09-01T03:42:18;16.799999999999997;;;14.0;;
14675;SDS011;7426;52.524;13.460;2022-09-01T03:44:15;32.8;;;29.450000000000003;;
14675;SDS011;7426;52.524;13.460;2022-09-01T03:46:20;7.7875000000000005;;;1.6;;
14675;SDS011;7426;52.524;13.460;2022-09-01T03:48:16;7.0875;;;3.4375000000000004;;
14675;SDS011;7426;52.524;13.460;2022-09-01T03:50:20;5.6000000000000005;;;1.5;;
14675;SDS011;7426;52.524;13.460;2022-09-01T03:52:14;7.8125;;;1.7999999999999998;;
14675;SDS011;7426;52.524;13.460;2022-09-01T03:54:14;6.5875;;;1.7249999999999999;;
14675;SDS011;7426;52.524;13.460;2022-09-01T03:56:15;7.2375;;;1.9749999999999999;;
14675;SDS011;7426;52.524;13.460;2022-09-01T03:58:18;5.8;;;2.125;;
14675;SDS011;7426;52.524;13.460;2022-09-01T04:00:20;4.65;;;1.3875000000000002;;
14675;SDS011;7426;52.524;13.460;2022-09-01T04:02:14;5.3500000000000005;;;1.7;;
14675;SDS011;7426;52.524;13.460;2022-09-01T04:04:14;4.425000000000001;;;1.75;;
14675;SDS011;7426;52.524;13.460;2022-09-01T04:06:17;5.8125;;;1.9375;;
14675;SDS011;7426;52.524;13.460;2022-09-01T04:08:14;6.5625;;;1.9249999999999998;;
14675;SDS011;7426;52.524;13.460;2022-09-01T04:10:14;9.5875;;;2.425;;
14675;SDS011;7426;52.524;13.460;2022-09-01T04:12:14;7.4;;;2.0625;;
14675;SDS011;7426;52.524;13.460;2022-09-01T04:14:14;6.75;;;2.55;;
14675;SDS011;7426;52.524;13.460;2022-09-01T04:18:03;5.1;;;1.9375;;
14675;SDS011;7426;52.524;13.460;2022-09-01T04:18:19;4.875;;;1.9375;;
14675;SDS011;7426;52.524;13.460;2022-09-01T04:20:19;4.775;;;1.6124999999999998;;
14675;SDS011;7426;52.524;13.460;2022-09-01T04:22:16;4.9125000000000005;;;1.8;;
14675;SDS011;7426;52.524;13.460;2022-09-01T04:24:15;5.074999999999999;;;1.625;;
14675;SDS011;7426;52.524;13.460;2022-09-01T04:26:19;6.824999999999999;;;1.8875;;
14675;SDS011;7426;52.524;13.460;2022-09-01T04:28:22;5.575;;;1.8375000000000001;;
14675;SDS011;7426;52.524;13.460;2022-09-01T04:30:15;4.5625;;;1.525;;
14675;SDS011;7426;52.524;13.460;2022-09-01T04:32:14;4.1625;;;1.5375;;
14675;SDS011;7426;52.524;13.460;2022-09-01T04:34:15;4.5625;;;1.3875000000000002;;
14675;SDS011;7426;52.524;13.460;2022-09-01T04:36:19;4.7125;;;1.4875;;
14675;SDS011;7426;52.524;13.460;2022-09-01T04:38:15;3.8;;;1.4;;
14675;SDS011;7426;52.524;13.460;2022-09-01T04:40:14;4.4625;;;1.7999999999999998;;
14675;SDS011;7426;52.524;13.460;2022-09-01T04:42:15;9.225000000000001;;;1.6875;;
14675;SDS011;7426;52.524;13.460;2022-09-01T04:44:16;3.4875;;;1.2125000000000001;;
14675;SDS011;7426;52.524;13.460;2022-09-01T04:46:14;5.7625;;;1.7750000000000001;;
14675;SDS011;7426;52.524;13.460;2022-09-01T04:48:15;5.3125;;;1.7;;
14675;SDS011;7426;52.524;13.460;2022-09-01T04:50:16;4.1;;;1.825;;
14675;SDS011;7426;52.524;13.460;2022-09-01T04:52:14;8.8625;;;1.6375;;
14675;SDS011;7426;52.524;13.460;2022-09-01T04:54:15;3.6875;;;1.4125;;
14675;SDS011;7426;52.524;13.460;2022-09-01T04:56:18;11.525;;;2.2249999999999996;;
14675;SDS011;7426;52.524;13.460;2022-09-01T04:58:16;4.5125;;;1.825;;
14675;SDS011;7426;52.524;13.460;2022-09-01T05:00:22;2.6875;;;1.2374999999999998;;
14675;SDS011;7426;52.524;13.460;2022-09-01T05:02:14;5.15;;;1.6;;
14675;SDS011;7426;52.524;13.460;2022-09-01T05:04:16;6.5125;;;1.4375;;
14675;SDS011;7426;52.524;13.460;2022-09-01T05:06:15;3.2;;;1.5999999999999999;;
14675;SDS011;7426;52.524;13.460;2022-09-01T05:08:16;3.1624999999999996;;;1.0125;;
14675;SDS011;7426;52.524;13.460;2022-09-01T05:10:17;5.125;;;1.3375;;
14675;SDS011;7426;52.524;13.460;2022-09-01T05:12:15;5.8375;;;1.0499999999999998;;
14675;SDS011;7426;52.524;13.460;2022-09-01T05:14:17;3.0125;;;1.225;;
14675;SDS011;7426;52.524;13.460;2022-09-01T05:16:16;4.7875;;;1.25;;
14675;SDS011;7426;52.524;13.460;2022-09-01T05:18:15;3.225;;;1.2374999999999998;;
14675;SDS011;7426;52.524;13.460;2022-09-01T05:20:15;3.625;;;1.4625;;
14675;SDS011;7426;52.524;13.460;2022-09-01T05:22:15;5.0375000000000005;;;1.425;;
14675;SDS011;7426;52.524;13.460;2022-09-01T05:24:16;4.65;;;1.6375;;
14675;SDS011;7426;52.524;13.460;2022-09-01T05:26:17;3.5999999999999996;;;1.6124999999999998;;
14675;SDS011;7426;52.524;13.460;2022-09-01T05:28:18;4.7375;;;1.625;;
14675;SDS011;7426;52.524;13.460;2022-09-01T05:30:16;3.0;;;1.3625;;
14675;SDS011;7426;52.524;13.460;2022-09-01T05:32:14;3.8500000000000005;;;1.35;;
14675;SDS011;7426;52.524;13.460;2022-09-01T05:34:14;4.275;;;1.9375;;
14675;SDS011;7426;52.524;13.460;2022-09-01T05:36:15;3.2124999999999995;;;1.2875;;
14675;SDS011;7426;52.524;13.460;2022-09-01T05:38:14;3.275;;;1.4;;
14675;SDS011;7426;52.524;13.460;2022-09-01T05:40:15;3.9125;;;1.725;;
14675;SDS011;7426;52.524;13.460;2022-09-01T05:42:14;3.8249999999999997;;;1.4874999999999998;;
14675;SDS011;7426;52.524;13.460;2022-09-01T05:44:14;2.6625;;;1.0875;;
14675;SDS011;7426;52.524;13.460;2022-09-01T05:46:16;3.075;;;1.2375;;
14675;SDS011;7426;52.524;13.460;2022-09-01T05:48:20;3.9124999999999996;;;1.4;;
14675;SDS011;7426;52.524;13.460;2022-09-01T05:50:15;5.5249999999999995;;;1.0875;;
14675;SDS011;7426;52.524;13.460;2022-09-01T05:52:14;5.9125000000000005;;;1.05;;
14675;SDS011;7426;52.524;13.460;2022-09-01T05:54:15;9.475;;;1.8875000000000002;;
14675;SDS011;7426;52.524;13.460;2022-09-01T05:56:14;79.86250000000001;;;74.1625;;
14675;SDS011;7426;52.524;13.460;2022-09-01T05:58:15;388.4875;;;358.975;;
14675;SDS011;7426;52.524;13.460;2022-09-01T06:00:17;691.525;;;571.05;;
14675;SDS011;7426;52.524;13.460;2022-09-01T06:02:14;1960.725;;;919.6125;;
14675;SDS011;7426;52.524;13.460;2022-09-01T06:04:15;2200.0;;;826.3249999999999;;
14675;SDS011;7426;52.524;13.460;2022-09-01T06:06:14;2200.0;;;912.1875;;
14675;SDS011;7426;52.524;13.460;2022-09-01T06:08:14;1928.3375;;;796.8125;;
14675;SDS011;7426;52.524;13.460;2022-09-01T06:10:15;1659.2375;;;750.3125;;
14675;SDS011;7426;52.524;13.460;2022-09-01T06:12:22;1659.3125;;;750.2875;;
14675;SDS011;7426;52.524;13.460;2022-09-01T06:14:15;1834.6125;;;780.4749999999999;;
14675;SDS011;7426;52.524;13.460;2022-09-01T06:16:15;2200.0;;;999.9;;
14675;SDS011;7426;52.524;13.460;2022-09-01T06:18:14;2200.0;;;999.9;;
14675;SDS011;7426;52.524;13.460;2022-09-01T06:20:17;2031.65;;;965.8499999999999;;
14675;SDS011;7426;52.524;13.460;2022-09-01T06:22:15;1269.7625;;;846.2125;;
14675;SDS011;7426;52.524;13.460;2022-09-01T06:24:15;1658.6875;;;875.175;;
14675;SDS011;7426;52.524;13.460;2022-09-01T06:26:16;1497.475;;;824.625;;
14675;SDS011;7426;52.524;13.460;2022-09-01T06:28:15;2012.4;;;952.6624999999999;;
14675;SDS011;7426;52.524;13.460;2022-09-01T06:30:17;2013.775;;;954.4375;;
14675;SDS011;7426;52.524;13.460;2022-09-01T06:32:15;1992.25;;;935.15;;
14675;SDS011;7426;52.524;13.460;2022-09-01T06:34:17;2042.8875;;;913.0;;
14675;SDS011;7426;52.524;13.460;2022-09-01T06:36:16;2071.25;;;914.7375;;
14675;SDS011;7426;52.524;13.460;2022-09-01T06:38:16;2007.875;;;796.125;;
14675;SDS011;7426;52.524;13.460;2022-09-01T06:40:16;2062.1;;;764.6375;;
14675;SDS011;7426;52.524;13.460;2022-09-01T06:42:16;1936.65;;;744.05;;
14675;SDS011;7426;52.524;13.460;2022-09-01T06:44:16;1970.0500000000002;;;775.2875;;
14675;SDS011;7426;52.524;13.460;2022-09-01T06:46:14;1798.625;;;690.275;;
14675;SDS011;7426;52.524;13.460;2022-09-01T06:48:15;1822.7125;;;723.9749999999999;;
14675;SDS011;7426;52.524;13.460;2022-09-01T06:50:15;1704.7375;;;674.5875;;
14675;SDS011;7426;52.524;13.460;2022-09-01T06:52:15;1722.7125;;;685.1999999999999;;
14675;SDS011;7426;52.524;13.460;2022-09-01T06:54:15;2113.5375;;;940.3499999999999;;
14675;SDS011;7426;52.524;13.460;2022-09-01T06:56:14;2136.525;;;943.5374999999999;;
14675;SDS011;7426;52.524;13.460;2022-09-01T06:58:14;1722.95;;;676.6125;;
14675;SDS011;7426;52.524;13.460;2022-09-01T07:00:16;2149.5875;;;952.6125;;
14675;SDS011;7426;52.524;13.460;2022-09-01T07:02:15;2126.025;;;944.5;;
14675;SDS011;7426;52.524;13.460;2022-09-01T07:04:21;2112.225;;;946.5125;;
14675;SDS011;7426;52.524;13.460;2022-09-01T07:06:14;2141.9125;;;945.4124999999999;;
14675;SDS011;7426;52.524;13.460;2022-09-01T07:08:18;1983.7375;;;925.9124999999999;;
14675;SDS011;7426;52.524;13.460;2022-09-01T07:10:14;2089.875;;;924.625;;
14675;SDS011;7426;52.524;13.460;2022-09-01T07:12:19;2124.45;;;947.1125;;
14675;SDS011;7426;52.524;13.460;2022-09-01T07:14:15;2101.1;;;914.625;;
14675;SDS011;7426;52.524;13.460;2022-09-01T07:16:15;2121.55;;;951.25;;
14675;SDS011;7426;52.524;13.460;2022-09-01T07:18:16;2146.6875;;;951.9875;;
14675;SDS011;7426;52.524;13.460;2022-09-01T07:20:14;2131.6375;;;944.2625;;
14675;SDS011;7426;52.524;13.460;2022-09-01T07:22:14;2141.0125;;;944.5999999999999;;
14675;SDS011;7426;52.524;13.460;2022-09-01T07:24:17;2134.775;;;960.025;;
14675;SDS011;7426;52.524;13.460;2022-09-01T07:26:18;2133.8125;;;953.9124999999999;;
14675;SDS011;7426;52.524;13.460;2022-09-01T07:28:15;2200.0;;;942.4124999999999;;
14675;SDS011;7426;52.524;13.460;2022-09-01T07:30:14;2151.3125;;;869.65;;
14675;SDS011;7426;52.524;13.460;2022-09-01T07:32:15;2045.0375;;;841.7375;;
14675;SDS011;7426;52.524;13.460;2022-09-01T07:34:16;1790.275;;;741.7625;;
14675;SDS011;7426;52.524;13.460;2022-09-01T07:36:15;1931.4;;;726.4;;
14675;SDS011;7426;52.524;13.460;2022-09-01T07:38:18;2042.8625;;;913.2375;;
14675;SDS011;7426;52.524;13.460;2022-09-01T07:40:19;2142.075;;;822.75;;
14675;SDS011;7426;52.524;13.460;2022-09-01T07:42:16;2085.6125;;;855.5625;;
14675;SDS011;7426;52.524;13.460;2022-09-01T07:44:14;2072.3125;;;973.4625;;
14675;SDS011;7426;52.524;13.460;2022-09-01T07:46:14;2024.375;;;839.5875000000001;;
14675;SDS011;7426;52.524;13.460;2022-09-01T07:48:18;1970.225;;;918.0999999999999;;
14675;SDS011;7426;52.524;13.460;2022-09-01T07:50:14;1988.4375;;;939.325;;
14675;SDS011;7426;52.524;13.460;2022-09-01T07:52:14;1780.4875;;;889.925;;
14675;SDS011;7426;52.524;13.460;2022-09-01T07:54:14;1808.8625;;;883.4;;
14675;SDS011;7426;52.524;13.460;2022-09-01T07:56:16;1901.2125;;;920.1125;;
14675;SDS011;7426;52.524;13.460;2022-09-01T07:58:14;1873.25;;;897.2125;;
14675;SDS011;7426;52.524;13.460;2022-09-01T08:00:15;1902.3875;;;907.4625;;
14675;SDS011;7426;52.524;13.460;2022-09-01T08:02:17;1703.575;;;889.7;;
14675;SDS011;7426;52.524;13.460;2022-09-01T08:04:16;1060.6000000000001;;;750.1500000000001;;
14675;SDS011;7426;52.524;13.460;2022-09-01T08:06:19;1355.25;;;797.1125;;
14675;SDS011;7426;52.524;13.460;2022-09-01T08:08:15;1324.85;;;837.4;;
14675;SDS011;7426;52.524;13.460;2022-09-01T08:10:14;1522.4625;;;833.125;;
14675;SDS011;7426;52.524;13.460;2022-09-01T08:12:14;1255.15;;;796.9;;
14675;SDS011;7426;52.524;13.460;2022-09-01T08:14:14;956.2125000000001;;;767.425;;
14675;SDS011;7426;52.524;13.460;2022-09-01T08:16:14;943.3375;;;757.2125;;
14675;SDS011;7426;52.524;13.460;2022-09-01T08:18:14;801.0250000000001;;;715.05;;
14675;SDS011;7426;52.524;13.460;2022-09-01T08:20:14;348.67499999999995;;;322.225;;
14675;SDS011;7426;52.524;13.460;2022-09-01T08:22:15;201.275;;;119.23750000000001;;
14675;SDS011;7426;52.524;13.460;2022-09-01T08:24:14;16.125;;;4.475;;
14675;SDS011;7426;52.524;13.460;2022-09-01T08:26:15;19.7375;;;10.362499999999999;;
14675;SDS011;7426;52.524;13.460;2022-09-01T08:28:15;20.3125;;;10.5875;;
14675;SDS011;7426;52.524;13.460;2022-09-01T08:30:14;16.362499999999997;;;4.625;;
14675;SDS011;7426;52.524;13.460;2022-09-01T08:32:14;13.162500000000001;;;1.9625;;
14675;SDS011;7426;52.524;13.460;2022-09-01T08:34:16;9.7;;;1.25;;
14675;SDS011;7426;52.524;13.460;2022-09-01T08:36:15;4.387499999999999;;;0.725;;
14675;SDS011;7426;52.524;13.460;2022-09-01T08:38:14;4.199999999999999;;;0.575;;
14675;SDS011;7426;52.524;13.460;2022-09-01T08:40:15;3.9875;;;0.775;;
14675;SDS011;7426;52.524;13.460;2022-09-01T08:42:16;4.4875;;;0.9500000000000001;;
14675;SDS011;7426;52.524;13.460;2022-09-01T08:44:17;4.0875;;;0.8625;;
14675;SDS011;7426;52.524;13.460;2022-09-01T08:46:16;4.475;;;0.85;;
14675;SDS011;7426;52.524;13.460;2022-09-01T08:48:16;4.4625;;;0.8875000000000001;;
14675;SDS011;7426;52.524;13.460;2022-09-01T08:50:14;7.3875;;;1.15;;
14675;SDS011;7426;52.524;13.460;2022-09-01T08:52:17;4.0875;;;0.8875;;
14675;SDS011;7426;52.524;13.460;2022-09-01T08:54:16;4.6875;;;1.125;;
14675;SDS011;7426;52.524;13.460;2022-09-01T08:56:15;3.6625;;;0.8;;
14675;SDS011;7426;52.524;13.460;2022-09-01T08:58:15;4.925;;;1.1749999999999998;;
14675;SDS011;7426;52.524;13.460;2022-09-01T09:00:15;3.85;;;0.85;;
14675;SDS011;7426;52.524;13.460;2022-09-01T09:02:19;3.725;;;0.825;;
14675;SDS011;7426;52.524;13.460;2022-09-01T09:04:18;6.15;;;1.1749999999999998;;
14675;SDS011;7426;52.524;13.460;2022-09-01T09:06:16;2.65;;;0.7000000000000001;;
14675;SDS011;7426;52.524;13.460;2022-09-01T09:08:18;3.425;;;0.925;;
14675;SDS011;7426;52.524;13.460;2022-09-01T09:10:16;3.9000000000000004;;;0.625;;
14675;SDS011;7426;52.524;13.460;2022-09-01T09:12:20;6.675;;;1.5750000000000002;;
14675;SDS011;7426;52.524;13.460;2022-09-01T09:14:17;2.6374999999999997;;;0.65;;
14675;SDS011;7426;52.524;13.460;2022-09-01T09:16:14;3.25;;;0.9375;;
14675;SDS011;7426;52.524;13.460;2022-09-01T09:18:16;6.6625000000000005;;;0.9750000000000001;;
14675;SDS011;7426;52.524;13.460;2022-09-01T09:20:15;2.7125;;;0.6625;;
14675;SDS011;7426;52.524;13.460;2022-09-01T09:22:15;3.3;;;0.9625000000000001;;
14675;SDS011;7426;52.524;13.460;2022-09-01T09:24:16;2.7249999999999996;;;0.6875;;
14675;SDS011;7426;52.524;13.460;2022-09-01T09:26:14;3.3625;;;0.85;;
14675;SDS011;7426;52.524;13.460;2022-09-01T09:28:15;2.6875;;;0.75;;
14675;SDS011;7426;52.524;13.460;2022-09-01T09:30:18;3.2750000000000004;;;0.7875;;
14675;SDS011;7426;52.524;13.460;2022-09-01T09:32:14;6.925;;;1.0875;;
14675;SDS011;7426;52.524;13.460;2022-09-01T09:34:15;5.8;;;0.9375;;
14675;SDS011;7426;52.524;13.460;2022-09-01T09:36:15;2.4625;;;0.7125;;
14675;SDS011;7426;52.524;13.460;2022-09-01T09:38:20;2.7;;;1.0125;;
14675;SDS011;7426;52.524;13.460;2022-09-01T09:40:15;3.4625;;;0.5875;;
14675;SDS011;7426;52.524;13.460;2022-09-01T09:42:15;2.05;;;0.47500000000000003;;
14675;SDS011;7426;52.524;13.460;2022-09-01T09:44:18;3.3;;;1.1;;
14675;SDS011;7426;52.524;13.460;2022-09-01T09:46:20;2.3375000000000004;;;0.825;;
14675;SDS011;7426;52.524;13.460;2022-09-01T09:48:25;3.5;;;0.65;;
14675;SDS011;7426;52.524;13.460;2022-09-01T09:50:16;2.4000000000000004;;;0.7;;
14675;SDS011;7426;52.524;13.460;2022-09-01T09:52:16;2.425;;;0.6875;;
14675;SDS011;7426;52.524;13.460;2022-09-01T09:54:17;2.725;;;0.8875;;
14675;SDS011;7426;52.524;13.460;2022-09-01T09:56:16;6.300000000000001;;;0.7;;
14675;SDS011;7426;52.524;13.460;2022-09-01T09:58:15;2.7625;;;0.6875;;
14675;SDS011;7426;52.524;13.460;2022-09-01T10:00:17;1.5625;;;0.5125;;
14675;SDS011;7426;52.524;13.460;2022-09-01T10:02:16;1.875;;;0.5375;;
14675;SDS011;7426;52.524;13.460;2022-09-01T10:04:14;3.125;;;0.875;;
14675;SDS011;7426;52.524;13.460;2022-09-01T10:06:28;1.85;;;0.6125;;
14675;SDS011;7426;52.524;13.460;2022-09-01T10:10:24;1.7625000000000002;;;0.7250000000000001;;
14675;SDS011;7426;52.524;13.460;2022-09-01T10:12:15;2.65;;;0.8125;;
14675;SDS011;7426;52.524;13.460;2022-09-01T10:14:15;5.4750000000000005;;;0.9749999999999999;;
14675;SDS011;7426;52.524;13.460;2022-09-01T10:16:15;2.3875;;;0.9875;;
14675;SDS011;7426;52.524;13.460;2022-09-01T10:18:15;2.1;;;0.8125;;
14675;SDS011;7426;52.524;13.460;2022-09-01T10:20:17;1.875;;;0.625;;
14675;SDS011;7426;52.524;13.460;2022-09-01T10:22:14;7.3;;;0.75;;
14675;SDS011;7426;52.524;13.460;2022-09-01T10:24:16;1.5125;;;0.675;;
14675;SDS011;7426;52.524;13.460;2022-09-01T10:26:14;2.7249999999999996;;;0.9624999999999999;;
14675;SDS011;7426;52.524;13.460;2022-09-01T10:28:15;2.8875;;;0.7000000000000001;;
14675;SDS011;7426;52.524;13.460;2022-09-01T10:30:15;4.112500000000001;;;1.625;;
14675;SDS011;7426;52.524;13.460;2022-09-01T10:32:15;1.5625;;;0.675;;
14675;SDS011;7426;52.524;13.460;2022-09-01T10:34:15;3.1375;;;0.75;;
14675;SDS011;7426;52.524;13.460;2022-09-01T10:36:14;2.1375;;;0.6625;;
14675;SDS011;7426;52.524;13.460;2022-09-01T10:38:15;1.9875;;;0.675;;